Time;durP1;ratioP1;P1;durP2;ratioP2;P2;SDS_P1;SDS_P2;PMS_P1;PMS_P2;Temp;Humidity;BMP_temperature;BMP_pressure;BME280_temperature;BME280_humidity;BME280_pressure;Samples;Min_cycle;Max_cycle;Signal;HPM_P1;HPM_P2
2022/10/28 00:02:10;;;;;;;15.50;8.38;;;;;;;13.59;100.00;101731.56;4973182;28;20034;-74
2022/10/28 00:04:35;;;;;;;18.33;8.70;;;;;;;13.51;100.00;101728.25;4981712;28;20026;-73
2022/10/28 00:07:01;;;;;;;18.35;9.15;;;;;;;13.53;100.00;101742.16;4976543;28;20027;-73
2022/10/28 00:09:26;;;;;;;16.75;8.80;;;;;;;13.48;100.00;101737.03;4974520;28;20022;-73
2022/10/28 00:11:52;;;;;;;18.50;9.25;;;;;;;13.42;100.00;101729.31;4973642;28;20053;-73
2022/10/28 00:14:17;;;;;;;16.98;9.00;;;;;;;13.38;100.00;101735.50;4974585;28;20034;-73
2022/10/28 00:16:42;;;;;;;16.75;9.55;;;;;;;13.35;100.00;101733.81;4975455;28;20026;-73
2022/10/28 00:19:11;;;;;;;16.00;9.55;;;;;;;13.26;100.00;101731.38;4972674;28;20106;-73
2022/10/28 00:21:38;;;;;;;21.15;9.80;;;;;;;13.25;100.00;101728.78;4975954;28;20037;-73
2022/10/28 00:24:05;;;;;;;15.90;9.40;;;;;;;13.19;100.00;101721.88;4973801;28;20027;-73
2022/10/28 00:26:32;;;;;;;16.45;9.75;;;;;;;13.15;100.00;101724.63;4974324;28;20034;-73
2022/10/28 00:29:03;;;;;;;17.92;9.88;;;;;;;13.12;100.00;101712.44;4974954;28;20034;-73
2022/10/28 00:31:30;;;;;;;16.02;8.63;;;;;;;13.12;100.00;101725.53;4971957;28;20427;-73
2022/10/28 00:33:57;;;;;;;16.45;9.38;;;;;;;13.08;100.00;101713.41;4974033;28;20023;-73
2022/10/28 00:36:25;;;;;;;21.77;9.32;;;;;;;12.99;100.00;101705.72;4975025;28;20094;-73
2022/10/28 00:38:52;;;;;;;18.30;9.80;;;;;;;13.01;100.00;101728.34;4972200;28;20037;-73
2022/10/28 00:41:21;;;;;;;22.48;10.15;;;;;;;12.99;100.00;101729.28;4971144;28;20042;-73
2022/10/28 00:43:51;;;;;;;18.00;9.00;;;;;;;12.98;100.00;101717.06;4974923;28;20049;-73
2022/10/28 00:46:48;;;;;;;14.32;9.23;;;;;;;12.95;100.00;101724.97;4974145;28;20039;-73
2022/10/28 00:49:17;;;;;;;20.60;8.88;;;;;;;12.87;100.00;101714.66;4956112;28;20047;-73
2022/10/28 00:51:46;;;;;;;17.55;9.45;;;;;;;12.84;100.00;101709.50;4973957;28;20125;-73
2022/10/28 00:54:13;;;;;;;18.83;10.05;;;;;;;12.83;100.00;101708.63;4973854;28;20117;-73
2022/10/28 00:56:44;;;;;;;17.42;9.35;;;;;;;12.83;100.00;101707.78;4973071;28;20085;-73
2022/10/28 00:59:28;;;;;;;20.80;9.48;;;;;;;12.77;100.00;101703.50;4973463;28;20027;-73
2022/10/28 01:01:53;;;;;;;16.02;8.90;;;;;;;12.76;100.00;101695.69;4974203;28;20066;-73
2022/10/28 01:04:20;;;;;;;14.98;9.30;;;;;;;12.78;100.00;101697.38;4974318;28;20066;-73
2022/10/28 01:06:47;;;;;;;15.77;9.50;;;;;;;12.73;100.00;101691.38;4973608;28;20114;-73
2022/10/28 01:09:12;;;;;;;15.18;9.18;;;;;;;12.72;100.00;101683.53;4972241;28;20086;-73
2022/10/28 01:12:10;;;;;;;17.25;8.70;;;;;;;12.70;100.00;101683.59;4972463;28;20557;-73
2022/10/28 01:14:46;;;;;;;16.02;9.15;;;;;;;12.64;100.00;101687.16;4962510;28;20030;-73
2022/10/28 01:17:30;;;;;;;16.40;9.18;;;;;;;12.61;100.00;101689.84;4974759;28;20066;-73
2022/10/28 01:20:12;;;;;;;19.05;8.88;;;;;;;12.56;100.00;101683.84;4973480;28;20114;-73
2022/10/28 01:22:59;;;;;;;18.63;9.50;;;;;;;12.56;100.00;101688.22;4973038;28;20093;-73
2022/10/28 01:26:19;;;;;;;13.55;9.07;;;;;;;12.52;100.00;101687.38;4972575;28;20035;-73
2022/10/28 01:29:00;;;;;;;17.90;8.68;;;;;;;12.51;100.00;101687.44;4903505;29;20074;-73
2022/10/28 01:32:13;;;;;;;16.90;8.63;;;;;;;12.48;100.00;101685.72;4965149;28;20126;-73
2022/10/28 01:34:52;;;;;;;20.00;8.70;;;;;;;12.44;100.00;101672.75;4913315;29;20067;-73
2022/10/28 01:37:25;;;;;;;18.48;8.80;;;;;;;12.39;100.00;101673.69;4913342;29;20552;-73
2022/10/28 01:40:00;;;;;;;15.60;9.13;;;;;;;12.41;100.00;101674.50;4954113;28;20043;-73
2022/10/28 01:42:25;;;;;;;17.45;8.98;;;;;;;12.40;100.00;101670.19;4972606;28;20070;-73
2022/10/28 01:45:05;;;;;;;17.37;10.00;;;;;;;12.34;100.00;101664.19;4973822;28;20085;-73
2022/10/28 01:47:37;;;;;;;16.98;9.13;;;;;;;12.32;100.00;101666.81;4973560;28;20376;-73
2022/10/28 01:50:13;;;;;;;17.35;8.88;;;;;;;12.33;100.00;101671.19;4971614;28;20018;-73
2022/10/28 01:52:40;;;;;;;18.52;9.27;;;;;;;12.33;100.00;101675.56;4972752;28;20026;-73
2022/10/28 01:55:12;;;;;;;16.80;9.30;;;;;;;12.32;100.00;101672.06;4972108;28;20033;-73
2022/10/28 01:57:40;;;;;;;16.90;8.63;;;;;;;12.23;100.00;101660.91;4973150;28;20062;-73
2022/10/28 02:00:06;;;;;;;17.02;8.68;;;;;;;12.28;100.00;101666.91;4973016;28;20057;-73
2022/10/28 02:02:35;;;;;;;19.38;8.90;;;;;;;12.33;100.00;101675.56;4973465;28;20030;-73
2022/10/28 02:05:25;;;;;;;16.77;8.25;;;;;;;12.29;100.00;101668.63;4971260;28;20390;-73
2022/10/28 02:07:56;;;;;;;15.38;8.77;;;;;;;12.28;100.00;101673.00;4970144;28;20129;-73
2022/10/28 02:10:31;;;;;;;16.60;8.80;;;;;;;12.30;100.00;101665.16;4970349;28;20109;-73
2022/10/28 02:13:01;;;;;;;20.52;8.75;;;;;;;12.31;100.00;101665.13;4972629;28;20114;-73
2022/10/28 02:15:50;;;;;;;17.10;8.50;;;;;;;12.30;100.00;101668.63;4973273;28;20193;-73
2022/10/28 02:18:52;;;;;;;16.05;8.10;;;;;;;12.32;100.00;101673.81;4972055;28;20027;-73
2022/10/28 02:21:50;;;;;;;19.98;8.57;;;;;;;12.33;100.00;101668.56;4970693;28;20058;-72
2022/10/28 02:24:22;;;;;;;17.50;8.07;;;;;;;12.35;100.00;101674.63;4963161;28;20053;-72
2022/10/28 02:27:01;;;;;;;17.13;8.07;;;;;;;12.39;100.00;101665.84;4971702;28;20070;-73
2022/10/28 02:29:37;;;;;;;15.90;7.82;;;;;;;12.38;100.00;101661.50;4972015;28;20041;-73
2022/10/28 02:32:13;;;;;;;21.75;7.60;;;;;;;12.38;100.00;101658.03;4970498;28;20501;-73
2022/10/28 02:34:43;;;;;;;16.23;8.00;;;;;;;12.44;100.00;101663.16;4963235;28;20564;-73
2022/10/28 02:37:16;;;;;;;16.02;6.88;;;;;;;12.44;100.00;101657.06;4973873;28;20037;-73
2022/10/28 02:39:46;;;;;;;19.15;6.85;;;;;;;12.43;100.00;101656.19;4971818;28;20045;-73
2022/10/28 02:42:18;;;;;;;16.02;7.47;;;;;;;12.38;100.00;101645.81;4972224;28;20534;-73
2022/10/28 02:44:48;;;;;;;13.75;7.50;;;;;;;12.47;100.00;101654.38;4969954;28;20051;-73
2022/10/28 02:47:18;;;;;;;14.80;6.82;;;;;;;12.43;100.00;101656.19;4968671;28;20031;-72
2022/10/28 02:49:50;;;;;;;19.45;7.78;;;;;;;12.52;100.00;101661.22;4972176;28;20117;-73
2022/10/28 02:52:19;;;;;;;13.88;7.00;;;;;;;12.50;100.00;101652.56;4972704;28;20023;-73
2022/10/28 02:54:54;;;;;;;15.95;6.93;;;;;;;12.47;100.00;101647.41;4971994;28;20035;-73
2022/10/28 02:57:23;;;;;;;17.02;7.72;;;;;;;12.64;100.00;101654.94;4973408;28;20141;-73
2022/10/28 02:59:57;;;;;;;17.58;7.25;;;;;;;12.69;100.00;101637.41;4969815;28;20103;-73
2022/10/28 03:02:23;;;;;;;19.48;8.20;;;;;;;12.73;100.00;101640.81;4970782;28;20038;-73
2022/10/28 03:04:48;;;;;;;18.63;7.38;;;;;;;12.76;100.00;101644.22;4972195;28;20026;-72
2022/10/28 03:07:13;;;;;;;20.67;7.70;;;;;;;12.72;100.00;101639.06;4971875;28;20119;-73
2022/10/28 03:09:39;;;;;;;14.18;6.70;;;;;;;12.79;100.00;101648.53;4971695;28;20035;-73
2022/10/28 03:12:04;;;;;;;19.92;7.57;;;;;;;12.74;100.00;101629.44;4972491;28;20073;-73
2022/10/28 03:14:29;;;;;;;12.60;6.60;;;;;;;12.84;100.00;101650.16;4971992;28;20027;-73
2022/10/28 03:16:55;;;;;;;19.92;6.97;;;;;;;12.87;100.00;101641.38;4972717;28;20352;-73
2022/10/28 03:19:20;;;;;;;18.70;6.68;;;;;;;12.87;100.00;101641.38;4971194;28;20037;-73
2022/10/28 03:21:45;;;;;;;18.40;6.85;;;;;;;12.88;100.00;101646.63;4971254;28;20122;-73
2022/10/28 03:24:10;;;;;;;14.35;6.75;;;;;;;12.91;100.00;101650.91;4970169;28;20023;-73
2022/10/28 03:26:36;;;;;;;13.52;6.53;;;;;;;12.83;100.00;101624.91;4972762;28;20042;-73
2022/10/28 03:29:01;;;;;;;17.98;6.97;;;;;;;12.96;100.00;101646.44;4971178;28;20034;-73
2022/10/28 03:31:26;;;;;;;16.50;6.53;;;;;;;13.01;100.00;101643.72;4972485;28;20035;-73
2022/10/28 03:33:52;;;;;;;16.60;6.18;;;;;;;12.99;100.00;101650.75;4971548;28;20033;-73
2022/10/28 03:36:17;;;;;;;16.95;6.53;;;;;;;13.00;100.00;101650.72;4971613;28;20031;-73
2022/10/28 03:38:42;;;;;;;15.80;6.15;;;;;;;13.00;100.00;101650.72;4971448;28;20105;-73
2022/10/28 03:41:07;;;;;;;17.63;7.32;;;;;;;12.98;100.00;101643.78;4972476;28;20458;-73
2022/10/28 03:43:33;;;;;;;11.10;6.30;;;;;;;12.99;100.00;101642.91;4972184;28;20054;-73
2022/10/28 03:45:58;;;;;;;15.38;6.60;;;;;;;12.96;100.00;101635.97;4974527;28;20015;-73
2022/10/28 03:48:23;;;;;;;16.08;7.05;;;;;;;12.95;100.00;101636.88;4974861;28;20656;-73
2022/10/28 03:50:53;;;;;;;16.65;7.70;;;;;;;13.01;100.00;101634.09;4972181;28;20050;-73
2022/10/28 03:53:18;;;;;;;14.43;6.05;;;;;;;13.04;100.00;101628.81;4971258;28;20031;-73
2022/10/28 03:55:49;;;;;;;15.75;6.90;;;;;;;12.98;100.00;101621.13;4977488;28;20034;-73
2022/10/28 03:58:15;;;;;;;12.63;6.93;;;;;;;13.01;100.00;101634.09;4972222;28;20121;-73
2022/10/28 04:00:40;;;;;;;14.05;6.63;;;;;;;13.02;100.00;101630.63;4974886;28;20114;-73
2022/10/28 04:03:05;;;;;;;15.52;6.55;;;;;;;13.08;100.00;101633.09;4975008;28;20386;-73
2022/10/28 04:05:30;;;;;;;13.18;6.28;;;;;;;13.09;100.00;101640.06;4975382;28;20026;-73
2022/10/28 04:07:56;;;;;;;15.73;6.35;;;;;;;13.02;100.00;101629.75;4975484;28;20466;-73
2022/10/28 04:10:21;;;;;;;18.10;6.65;;;;;;;13.05;100.00;101627.94;4973029;28;20118;-73
2022/10/28 04:12:46;;;;;;;13.93;6.32;;;;;;;13.06;100.00;101626.16;4974602;28;20038;-73
2022/10/28 04:15:11;;;;;;;18.73;6.32;;;;;;;13.14;100.00;101639.94;4972344;28;20031;-73
2022/10/28 04:17:37;;;;;;;14.57;6.57;;;;;;;13.11;100.00;101634.78;4974864;28;20042;-73
2022/10/28 04:20:03;;;;;;;21.58;6.80;;;;;;;13.15;100.00;101640.84;4974309;28;20023;-73
2022/10/28 04:22:28;;;;;;;12.98;7.13;;;;;;;13.18;100.00;101644.25;4975149;28;20031;-73
2022/10/28 04:24:53;;;;;;;19.50;6.90;;;;;;;13.21;100.00;101641.56;4972378;28;20027;-73
2022/10/28 04:27:19;;;;;;;15.23;6.05;;;;;;;13.25;100.00;101650.25;4974788;28;20046;-73
2022/10/28 04:29:44;;;;;;;12.30;6.30;;;;;;;13.21;100.00;101646.81;4975616;28;20477;-73
2022/10/28 04:32:09;;;;;;;13.45;6.70;;;;;;;13.19;100.00;101637.25;4971887;28;20046;-73
2022/10/28 04:34:35;;;;;;;16.98;6.68;;;;;;;13.10;100.00;101633.91;4975237;28;20088;-73
2022/10/28 04:37:00;;;;;;;13.63;6.13;;;;;;;13.09;100.00;101647.06;4975162;28;20038;-73
2022/10/28 04:39:25;;;;;;;12.40;6.28;;;;;;;13.10;100.00;101644.38;4974171;28;20177;-73
2022/10/28 04:41:50;;;;;;;16.83;6.45;;;;;;;13.05;100.00;101643.63;4973475;28;20096;-73
2022/10/28 04:44:16;;;;;;;15.35;6.88;;;;;;;13.01;100.00;101635.88;4973380;28;20391;-73
2022/10/28 04:46:41;;;;;;;21.60;5.93;;;;;;;13.02;100.00;101641.09;4973037;28;20113;-73
2022/10/28 04:49:06;;;;;;;18.38;6.50;;;;;;;12.98;100.00;101651.63;4973183;28;20041;-73
2022/10/28 04:51:31;;;;;;;18.45;6.47;;;;;;;12.93;100.00;101640.41;4973241;28;20171;-73
2022/10/28 04:53:57;;;;;;;16.85;6.38;;;;;;;12.86;100.00;101645.75;4974944;28;20034;-72
2022/10/28 04:56:22;;;;;;;10.98;5.72;;;;;;;12.80;100.00;101635.41;4972976;28;20077;-73
2022/10/28 04:58:47;;;;;;;16.83;6.82;;;;;;;12.82;100.00;101640.63;4974228;28;20510;-73
2022/10/28 05:01:12;;;;;;;18.50;6.85;;;;;;;12.72;100.00;101621.66;4973081;28;20031;-73
2022/10/28 05:03:38;;;;;;;15.15;6.90;;;;;;;12.75;100.00;101641.63;4974789;28;20030;-73
2022/10/28 05:06:03;;;;;;;24.38;7.07;;;;;;;12.69;100.00;101628.66;4972069;28;20165;-73
2022/10/28 05:08:28;;;;;;;15.15;6.88;;;;;;;12.59;100.00;101614.94;4973454;28;20055;-73
2022/10/28 05:10:54;;;;;;;14.27;6.75;;;;;;;12.68;100.00;101632.19;4973110;28;20039;-73
2022/10/28 05:13:20;;;;;;;13.35;6.50;;;;;;;12.67;100.00;101638.31;4974616;28;20019;-73
2022/10/28 05:15:49;;;;;;;18.50;7.10;;;;;;;12.56;100.00;101623.69;4972567;28;20439;-73
2022/10/28 05:18:14;;;;;;;14.73;6.45;;;;;;;12.68;100.00;101651.34;4973177;28;20030;-73
2022/10/28 05:20:40;;;;;;;17.40;6.55;;;;;;;12.68;100.00;101640.88;4973748;28;20057;-73
2022/10/28 05:23:05;;;;;;;17.65;7.13;;;;;;;12.72;100.00;101642.56;4974427;28;20031;-73
2022/10/28 05:25:30;;;;;;;19.58;7.90;;;;;;;12.76;100.00;101639.00;4974210;28;20403;-73
2022/10/28 05:27:59;;;;;;;15.63;7.00;;;;;;;12.78;100.00;101626.72;4972389;28;20030;-73
2022/10/28 05:30:25;;;;;;;22.05;7.78;;;;;;;12.80;100.00;101624.94;4971863;28;20027;-73
2022/10/28 05:32:51;;;;;;;16.55;6.15;;;;;;;12.76;100.00;101625.91;4974209;28;20027;-73
2022/10/28 05:35:16;;;;;;;13.75;6.90;;;;;;;12.67;100.00;101606.91;4972171;28;20505;-73
2022/10/28 05:37:42;;;;;;;16.30;7.05;;;;;;;12.76;100.00;101622.44;4973848;28;20105;-74
2022/10/28 05:40:08;;;;;;;16.92;6.53;;;;;;;12.74;100.00;101627.69;4965718;28;20541;-73
2022/10/28 05:42:39;;;;;;;16.52;6.97;;;;;;;12.74;100.00;101632.91;4972305;28;20043;-73
2022/10/28 05:45:05;;;;;;;13.80;6.78;;;;;;;12.70;100.00;101628.66;4971925;28;20482;-73
2022/10/28 05:47:30;;;;;;;15.80;6.97;;;;;;;12.71;100.00;101632.13;4973476;28;20037;-73
2022/10/28 05:49:56;;;;;;;13.68;6.55;;;;;;;12.73;100.00;101622.50;4972497;28;20033;-73
2022/10/28 05:52:21;;;;;;;16.70;6.63;;;;;;;12.74;100.00;101625.06;4974205;28;20387;-73
2022/10/28 05:54:46;;;;;;;14.20;6.50;;;;;;;12.70;100.00;101620.81;4973289;28;20035;-73
2022/10/28 05:57:11;;;;;;;23.08;7.88;;;;;;;12.70;100.00;101627.78;4974073;28;20023;-72
2022/10/28 05:59:37;;;;;;;15.77;7.30;;;;;;;12.52;100.00;101602.84;4972627;28;20133;-73
2022/10/28 06:02:02;;;;;;;17.63;7.00;;;;;;;12.61;100.00;101631.44;4970643;28;20038;-73
2022/10/28 06:04:28;;;;;;;20.05;7.40;;;;;;;12.58;100.00;101628.88;4973236;28;20109;-72
2022/10/28 06:06:55;;;;;;;17.00;7.43;;;;;;;12.57;100.00;101624.56;4974220;28;20169;-73
2022/10/28 06:09:20;;;;;;;18.67;6.85;;;;;;;12.54;100.00;101629.84;4971220;28;20487;-73
2022/10/28 06:11:45;;;;;;;18.80;7.03;;;;;;;12.50;100.00;101636.88;4973331;28;20063;-73
2022/10/28 06:14:11;;;;;;;21.50;7.97;;;;;;;12.48;100.00;101641.25;4972123;28;20109;-73
2022/10/28 06:16:37;;;;;;;13.43;6.50;;;;;;;12.48;100.00;101633.41;4970493;28;20491;-72
2022/10/28 06:19:02;;;;;;;13.77;7.05;;;;;;;12.39;100.00;101628.34;4974014;28;20088;-73
2022/10/28 06:21:28;;;;;;;19.58;7.72;;;;;;;12.47;100.00;101641.31;4969979;28;20102;-73
2022/10/28 06:23:53;;;;;;;18.30;7.35;;;;;;;12.45;100.00;101643.94;4972848;28;20117;-73
2022/10/28 06:26:18;;;;;;;14.88;6.88;;;;;;;12.48;100.00;101638.66;4971231;28;20031;-73
2022/10/28 06:28:46;;;;;;;18.13;7.68;;;;;;;12.49;100.00;101639.50;4973226;28;20073;-73
2022/10/28 06:31:11;;;;;;;18.88;7.85;;;;;;;12.46;100.00;101634.34;4970942;28;20034;-73
2022/10/28 06:33:36;;;;;;;20.48;8.10;;;;;;;12.48;100.00;101632.56;4971935;28;20030;-73
2022/10/28 06:36:02;;;;;;;15.73;7.35;;;;;;;12.47;100.00;101636.09;4972314;28;20034;-73
2022/10/28 06:38:28;;;;;;;17.40;7.20;;;;;;;12.50;100.00;101631.66;4968005;28;20391;-72
2022/10/28 06:40:56;;;;;;;17.80;8.00;;;;;;;12.53;100.00;101631.59;4972708;28;20035;-73
2022/10/28 06:43:21;;;;;;;20.33;7.45;;;;;;;12.55;100.00;101635.03;4965651;28;20053;-73
2022/10/28 06:45:47;;;;;;;18.95;7.65;;;;;;;12.56;100.00;101636.78;4968575;28;20398;-73
2022/10/28 06:48:12;;;;;;;17.10;7.85;;;;;;;12.56;100.00;101628.06;4970050;28;20054;-73
2022/10/28 06:50:38;;;;;;;19.70;8.18;;;;;;;12.58;100.00;101629.72;4972131;28;20119;-73
2022/10/28 06:53:04;;;;;;;15.98;7.50;;;;;;;12.60;100.00;101630.59;4971983;28;20023;-73
2022/10/28 06:55:29;;;;;;;20.63;8.00;;;;;;;12.64;100.00;101634.84;4973324;28;20042;-73
2022/10/28 06:57:59;;;;;;;17.58;7.65;;;;;;;12.62;100.00;101634.03;4973409;28;20019;-73
2022/10/28 07:00:25;;;;;;;22.88;7.97;;;;;;;12.70;100.00;101633.88;4971543;28;20057;-73
2022/10/28 07:02:54;;;;;;;19.38;7.65;;;;;;;12.74;100.00;101638.16;4970320;28;20478;-73
2022/10/28 07:05:20;;;;;;;22.10;7.97;;;;;;;12.80;100.00;101637.19;4971854;28;20106;-73
2022/10/28 07:07:45;;;;;;;23.33;7.85;;;;;;;12.85;100.00;101637.94;4972435;28;20037;-73
2022/10/28 07:10:11;;;;;;;22.83;7.82;;;;;;;12.88;100.00;101637.88;4972250;28;20102;-73
2022/10/28 07:12:36;;;;;;;21.55;8.13;;;;;;;12.95;100.00;101634.25;4971506;28;20501;-73
2022/10/28 07:15:02;;;;;;;19.85;8.07;;;;;;;13.06;100.00;101632.25;4970606;28;20015;-73
2022/10/28 07:17:27;;;;;;;18.85;7.55;;;;;;;13.20;100.00;101634.59;4970212;28;20045;-73
2022/10/28 07:19:53;;;;;;;17.73;7.78;;;;;;;13.34;100.00;101640.44;4969341;28;20027;-73
2022/10/28 07:22:18;;;;;;;17.35;7.57;;;;;;;13.31;100.00;101634.41;4973172;28;20536;-73
2022/10/28 07:24:43;;;;;;;17.33;8.35;;;;;;;13.49;100.00;101651.44;4973269;28;20023;-73
2022/10/28 07:27:08;;;;;;;20.70;7.47;;;;;;;13.48;100.00;101639.25;4969848;28;20512;-73
2022/10/28 07:29:34;;;;;;;19.00;7.47;;;;;;;13.66;100.00;101651.91;4974004;28;20027;-73
2022/10/28 07:31:59;;;;;;;15.25;7.80;;;;;;;13.76;100.00;101656.03;4972782;28;20449;-72
2022/10/28 07:34:25;;;;;;;14.02;7.85;;;;;;;13.82;100.00;101644.56;4966501;28;20019;-71
2022/10/28 07:36:52;;;;;;;17.83;7.93;;;;;;;13.92;100.00;101655.69;4975718;28;20030;-72
2022/10/28 07:39:18;;;;;;;17.30;7.15;;;;;;;14.02;100.00;101665.88;4976312;28;20019;-72
2022/10/28 07:41:44;;;;;;;14.07;7.30;;;;;;;14.11;100.00;101653.47;4974601;28;20067;-72
2022/10/28 07:44:09;;;;;;;16.55;7.60;;;;;;;14.24;100.00;101644.38;4973557;28;20066;-72
2022/10/28 07:46:34;;;;;;;18.23;7.15;;;;;;;14.32;100.00;101638.94;4975739;28;20031;-72
2022/10/28 07:49:00;;;;;;;23.02;7.50;;;;;;;14.55;100.00;101646.22;4976007;28;20453;-72
2022/10/28 07:51:25;;;;;;;16.80;6.88;;;;;;;14.60;100.00;101632.06;4974807;28;20073;-72
2022/10/28 07:53:51;;;;;;;21.80;7.13;;;;;;;14.80;100.00;101635.91;4973042;28;20026;-72
2022/10/28 07:56:17;;;;;;;17.77;7.43;;;;;;;14.86;100.00;101625.25;4975577;28;20109;-72
2022/10/28 07:58:43;;;;;;;18.77;7.45;;;;;;;14.98;100.00;101636.25;4974988;28;20035;-72
2022/10/28 08:01:12;;;;;;;15.70;7.22;;;;;;;15.06;100.00;101628.13;4976299;28;20066;-72
2022/10/28 08:03:38;;;;;;;23.75;7.65;;;;;;;15.18;100.00;101637.44;4975826;28;20035;-72
2022/10/28 08:06:09;;;;;;;14.77;6.72;;;;;;;15.26;100.00;101637.19;4978593;28;20479;-72
2022/10/28 08:08:35;;;;;;;20.95;6.90;;;;;;;15.40;100.00;101637.59;4973459;28;20082;-72
2022/10/28 08:11:15;;;;;;;18.92;7.18;;;;;;;15.52;100.00;101642.50;4969677;28;20033;-73
2022/10/28 08:13:40;;;;;;;15.70;6.57;;;;;;;15.55;100.00;101636.28;4969297;28;20034;-73
2022/10/28 08:16:07;;;;;;;20.65;7.15;;;;;;;15.68;100.00;101649.00;4967081;28;20039;-73
2022/10/28 08:18:33;;;;;;;14.85;7.13;;;;;;;15.75;100.00;101661.97;4975748;28;20074;-73
2022/10/28 08:20:59;;;;;;;23.42;6.80;;;;;;;15.81;100.00;101664.41;4976340;28;20037;-74
2022/10/28 08:23:25;;;;;;;15.52;6.18;;;;;;;15.77;100.00;101658.38;4974851;28;20029;-73
2022/10/28 08:25:51;;;;;;;16.80;6.65;;;;;;;15.79;100.00;101666.22;4975649;28;20027;-73
2022/10/28 08:28:17;;;;;;;15.35;6.00;;;;;;;15.73;100.00;101669.03;4975797;28;20034;-73
2022/10/28 08:30:44;;;;;;;14.15;6.05;;;;;;;15.63;100.00;101650.91;4975209;28;20022;-73
2022/10/28 08:33:09;;;;;;;16.88;6.82;;;;;;;15.59;100.00;101654.53;4975739;28;20537;-73
2022/10/28 08:35:35;;;;;;;19.00;6.80;;;;;;;15.63;100.00;101661.44;4975932;28;20035;-73
2022/10/28 08:38:02;;;;;;;19.20;6.93;;;;;;;15.60;100.00;101666.78;4975137;28;20023;-73
2022/10/28 08:40:41;;;;;;;18.42;6.80;;;;;;;15.67;100.00;101662.22;4974899;28;20375;-73
2022/10/28 08:43:59;;;;;;;18.90;7.03;;;;;;;15.76;100.00;101658.41;4975444;28;20129;-74
2022/10/28 08:46:53;;;;;;;17.63;6.55;;;;;;;15.84;100.00;101641.50;4942846;28;20047;-73
2022/10/28 08:49:22;;;;;;;17.65;6.53;;;;;;;16.03;100.00;101649.66;4975172;28;20042;-73
2022/10/28 08:51:57;;;;;;;15.95;7.60;;;;;;;16.19;100.00;101644.75;4974856;28;20038;-73
2022/10/28 08:54:34;;;;;;;18.35;7.30;;;;;;;16.41;100.00;101650.09;4975106;28;20105;-74
2022/10/28 08:57:04;;;;;;;14.68;6.30;;;;;;;16.61;100.00;101655.53;4975367;28;20082;-73
2022/10/28 08:59:39;;;;;;;14.48;6.47;;;;;;;16.77;100.00;101647.09;4974104;28;20082;-73
2022/10/28 09:02:10;;;;;;;14.02;6.38;;;;;;;17.01;100.00;101656.75;4975534;28;20074;-73
2022/10/28 09:04:42;;;;;;;18.25;6.40;;;;;;;17.16;100.00;101663.19;4974465;28;20030;-73
2022/10/28 09:07:26;;;;;;;14.05;6.15;;;;;;;17.28;100.00;101661.88;4975335;28;20034;-73
2022/10/28 09:09:52;;;;;;;;;;;;;;;17.41;100.00;101659.63;4975391;28;20487;-73
2022/10/28 09:12:45;;;;;;;18.13;6.15;;;;;;;17.53;100.00;101664.44;4974284;28;19976;-73
2022/10/28 09:15:19;;;;;;;17.40;6.10;;;;;;;17.70;100.00;101669.03;4974873;28;20081;-73
2022/10/28 09:17:53;;;;;;;23.13;6.95;;;;;;;17.92;100.00;101674.31;4975170;28;20033;-73
2022/10/28 09:20:52;;;;;;;17.02;6.78;;;;;;;18.09;100.00;101668.34;4973836;28;20037;-73
2022/10/28 09:23:29;;;;;;;17.92;6.65;;;;;;;18.18;100.00;101666.19;4974482;28;20038;-73
2022/10/28 09:26:19;;;;;;;13.75;6.15;;;;;;;18.25;100.00;101669.44;4974197;28;20042;-73
2022/10/28 09:29:06;;;;;;;12.35;6.13;;;;;;;18.20;100.00;101666.13;4974953;28;20049;-73
2022/10/28 09:31:35;;;;;;;15.07;6.18;;;;;;;18.16;98.92;101664.53;4974461;28;20498;-73
2022/10/28 09:34:06;;;;;;;17.15;5.90;;;;;;;18.07;98.34;101672.81;4973897;28;20035;-73
2022/10/28 09:36:37;;;;;;;15.82;5.80;;;;;;;18.00;98.56;101675.72;4974498;28;20034;-73
2022/10/28 09:39:06;;;;;;;17.10;6.15;;;;;;;17.88;99.50;101665.66;4974431;28;20471;-73
2022/10/28 09:41:35;;;;;;;13.63;5.53;;;;;;;17.87;97.93;101682.41;4973599;28;20431;-73
2022/10/28 09:44:00;;;;;;;23.67;6.68;;;;;;;17.85;99.55;101678.13;4974311;28;20066;-73
2022/10/28 09:46:28;;;;;;;16.53;5.87;;;;;;;17.84;98.79;101669.34;4974396;28;20053;-73
2022/10/28 09:48:58;;;;;;;11.25;5.32;;;;;;;17.87;98.10;101677.13;4973574;28;20033;-74
2022/10/28 09:51:42;;;;;;;20.00;6.13;;;;;;;17.88;99.39;101686.75;4973467;28;20039;-73
2022/10/28 09:54:09;;;;;;;20.02;6.43;;;;;;;17.80;98.78;101667.75;4973490;28;20090;-73
2022/10/28 09:56:35;;;;;;;14.25;5.40;;;;;;;17.98;97.02;101682.84;4974485;28;20023;-73
2022/10/28 09:59:04;;;;;;;18.00;6.28;;;;;;;18.01;95.85;101672.16;4969669;28;20026;-74
2022/10/28 10:01:38;;;;;;;13.13;5.95;;;;;;;18.17;95.63;101680.28;4972341;28;20366;-74
2022/10/28 10:04:16;;;;;;;13.88;5.82;;;;;;;18.21;97.02;101665.19;4973448;28;20026;-76
2022/10/28 10:06:42;;;;;;;15.63;5.85;;;;;;;18.35;92.75;101677.81;4970005;28;20442;-76
2022/10/28 10:09:17;;;;;;;16.90;6.82;;;;;;;18.41;94.77;101674.88;4972099;28;20026;-76
2022/10/28 10:11:46;;;;;;;21.30;6.68;;;;;;;18.47;93.49;101678.16;4968791;28;20042;-75
2022/10/28 10:14:17;;;;;;;13.43;5.68;;;;;;;18.57;92.42;101675.09;4969349;28;20031;-75
2022/10/28 10:16:55;;;;;;;14.00;5.72;;;;;;;18.63;91.67;101670.38;4973246;28;20090;-75
2022/10/28 10:19:20;;;;;;;15.45;6.03;;;;;;;18.78;91.65;101682.09;4973670;28;20069;-75
2022/10/28 10:21:48;;;;;;;14.10;5.15;;;;;;;18.80;91.83;101667.06;4974024;28;20030;-75
2022/10/28 10:24:24;;;;;;;13.25;6.03;;;;;;;18.94;92.56;101671.72;4972733;28;20031;-75
2022/10/28 10:26:51;;;;;;;17.77;5.82;;;;;;;19.05;90.77;101676.50;4971564;28;20039;-75
2022/10/28 10:29:17;;;;;;;14.88;5.63;;;;;;;19.15;89.38;101669.88;4974084;28;20037;-75
2022/10/28 10:31:43;;;;;;;17.27;5.50;;;;;;;19.26;90.28;101658.78;4977562;28;20057;-75
2022/10/28 10:34:24;;;;;;;17.25;5.88;;;;;;;19.36;91.63;101660.94;4970081;28;20054;-74
2022/10/28 10:36:52;;;;;;;17.10;5.95;;;;;;;19.46;88.69;101660.50;4973184;28;20034;-75
2022/10/28 10:39:26;;;;;;;17.95;6.03;;;;;;;19.55;86.96;101660.91;4970894;28;20496;-75
2022/10/28 10:41:53;;;;;;;18.67;5.63;;;;;;;19.60;87.20;101658.91;4971579;28;20027;-75
2022/10/28 10:44:21;;;;;;;14.43;5.28;;;;;;;19.63;86.24;101647.31;4969686;28;20045;-74
2022/10/28 10:47:07;;;;;;;16.35;4.60;;;;;;;19.68;86.76;101640.03;4963698;28;20042;-75
2022/10/28 10:49:34;;;;;;;16.77;5.43;;;;;;;19.81;83.31;101638.50;4965278;28;20035;-75
2022/10/28 10:52:16;;;;;;;12.77;5.22;;;;;;;19.94;85.92;101638.75;4980380;28;20061;-75
2022/10/28 10:54:56;;;;;;;18.98;5.63;;;;;;;19.97;85.92;101645.69;4967425;28;20049;-75
2022/10/28 10:57:22;;;;;;;13.35;4.80;;;;;;;20.04;80.25;101647.94;4965780;28;20050;-75
2022/10/28 10:59:51;;;;;;;13.38;5.55;;;;;;;20.03;80.74;101634.78;4967135;28;20043;-75
2022/10/28 11:02:22;;;;;;;23.48;5.47;;;;;;;20.15;82.58;101646.56;4972967;28;20033;-76
2022/10/28 11:04:51;;;;;;;20.02;5.03;;;;;;;20.26;80.34;101650.34;4976756;28;20261;-75
2022/10/28 11:07:16;;;;;;;15.45;5.13;;;;;;;20.39;78.57;101657.69;4974560;28;20102;-74
2022/10/28 11:09:41;;;;;;;17.63;5.05;;;;;;;20.48;77.98;101649.25;4976174;28;20110;-75
2022/10/28 11:12:34;;;;;;;12.52;4.90;;;;;;;20.67;81.85;101662.44;4975853;28;20039;-75
2022/10/28 11:15:15;;;;;;;14.98;5.03;;;;;;;20.71;78.62;101650.72;4971922;28;20065;-75
2022/10/28 11:17:53;;;;;;;17.42;4.90;;;;;;;20.75;78.83;101633.72;4978098;28;20023;-75
2022/10/28 11:20:24;;;;;;;12.93;5.05;;;;;;;20.74;77.86;101635.53;4975888;28;20038;-75
2022/10/28 11:23:01;;;;;;;18.65;5.40;;;;;;;20.85;75.22;101632.28;4977671;28;20045;-76
2022/10/28 11:25:45;;;;;;;13.15;4.75;;;;;;;20.90;77.58;101637.34;4973551;28;20098;-75